sensor_id;sensor_type;location;lat;lon;timestamp;P1;durP1;ratioP1;P2;durP2;ratioP2
67841;SDS011;54642;59.126;37.876;2022-09-09T00:03:45;27.70;;;8.93;;
67841;SDS011;54642;59.126;37.876;2022-09-09T00:06:21;16.73;;;7.32;;
67841;SDS011;54642;59.126;37.876;2022-09-09T00:11:48;20.90;;;8.50;;
67841;SDS011;54642;59.126;37.876;2022-09-09T00:17:01;17.30;;;8.55;;
67841;SDS011;54642;59.126;37.876;2022-09-09T00:22:25;20.75;;;8.20;;
67841;SDS011;54642;59.126;37.876;2022-09-09T00:24:57;16.02;;;8.80;;
67841;SDS011;54642;59.126;37.876;2022-09-09T00:27:38;24.10;;;8.40;;
67841;SDS011;54642;59.126;37.876;2022-09-09T00:32:39;16.95;;;6.28;;
67841;SDS011;54642;59.126;37.876;2022-09-09T00:37:35;18.48;;;7.22;;
67841;SDS011;54642;59.126;37.876;2022-09-09T00:40:05;14.02;;;5.70;;
67841;SDS011;54642;59.126;37.876;2022-09-09T00:42:44;14.20;;;6.50;;
67841;SDS011;54642;59.126;37.876;2022-09-09T00:53:13;14.13;;;5.25;;
67841;SDS011;54642;59.126;37.876;2022-09-09T00:55:51;24.23;;;10.82;;
67841;SDS011;54642;59.126;37.876;2022-09-09T00:58:26;26.23;;;10.20;;
67841;SDS011;54642;59.126;37.876;2022-09-09T01:03:37;16.85;;;7.43;;
67841;SDS011;54642;59.126;37.876;2022-09-09T01:11:49;22.73;;;11.50;;
67841;SDS011;54642;59.126;37.876;2022-09-09T01:28:13;39.25;;;14.30;;
67841;SDS011;54642;59.126;37.876;2022-09-09T01:30:46;42.67;;;14.57;;
67841;SDS011;54642;59.126;37.876;2022-09-09T01:33:16;41.95;;;14.38;;
67841;SDS011;54642;59.126;37.876;2022-09-09T01:35:48;50.40;;;16.13;;
67841;SDS011;54642;59.126;37.876;2022-09-09T01:38:22;45.20;;;15.77;;
67841;SDS011;54642;59.126;37.876;2022-09-09T01:40:51;30.77;;;12.80;;
67841;SDS011;54642;59.126;37.876;2022-09-09T01:43:21;35.05;;;13.50;;
67841;SDS011;54642;59.126;37.876;2022-09-09T01:45:49;21.08;;;9.10;;
67841;SDS011;54642;59.126;37.876;2022-09-09T01:48:18;28.98;;;10.18;;
67841;SDS011;54642;59.126;37.876;2022-09-09T01:50:50;28.50;;;11.65;;
67841;SDS011;54642;59.126;37.876;2022-09-09T01:53:17;28.40;;;12.73;;
67841;SDS011;54642;59.126;37.876;2022-09-09T01:59:00;35.58;;;11.07;;
67841;SDS011;54642;59.126;37.876;2022-09-09T02:04:43;27.30;;;11.32;;
67841;SDS011;54642;59.126;37.876;2022-09-09T02:07:37;25.80;;;9.48;;
67841;SDS011;54642;59.126;37.876;2022-09-09T02:10:12;29.00;;;9.63;;
67841;SDS011;54642;59.126;37.876;2022-09-09T02:12:55;19.38;;;6.70;;
67841;SDS011;54642;59.126;37.876;2022-09-09T02:15:32;17.85;;;6.68;;
67841;SDS011;54642;59.126;37.876;2022-09-09T02:18:04;21.48;;;5.93;;
67841;SDS011;54642;59.126;37.876;2022-09-09T02:20:36;29.85;;;7.60;;
67841;SDS011;54642;59.126;37.876;2022-09-09T02:23:04;24.15;;;6.88;;
67841;SDS011;54642;59.126;37.876;2022-09-09T02:25:34;18.98;;;5.80;;
67841;SDS011;54642;59.126;37.876;2022-09-09T02:28:12;15.90;;;5.90;;
67841;SDS011;54642;59.126;37.876;2022-09-09T02:30:40;20.25;;;6.10;;
67841;SDS011;54642;59.126;37.876;2022-09-09T02:33:09;24.10;;;6.47;;
67841;SDS011;54642;59.126;37.876;2022-09-09T02:35:43;21.13;;;7.20;;
67841;SDS011;54642;59.126;37.876;2022-09-09T02:38:13;21.15;;;6.03;;
67841;SDS011;54642;59.126;37.876;2022-09-09T02:40:50;27.92;;;6.30;;
67841;SDS011;54642;59.126;37.876;2022-09-09T02:43:17;22.48;;;7.68;;
67841;SDS011;54642;59.126;37.876;2022-09-09T02:45:47;16.67;;;7.07;;
67841;SDS011;54642;59.126;37.876;2022-09-09T02:48:21;19.30;;;4.57;;
67841;SDS011;54642;59.126;37.876;2022-09-09T02:53:37;15.57;;;4.65;;
67841;SDS011;54642;59.126;37.876;2022-09-09T02:56:20;19.58;;;4.55;;
67841;SDS011;54642;59.126;37.876;2022-09-09T02:58:52;23.50;;;4.63;;
67841;SDS011;54642;59.126;37.876;2022-09-09T03:01:17;20.92;;;5.80;;
67841;SDS011;54642;59.126;37.876;2022-09-09T03:03:43;22.77;;;5.97;;
67841;SDS011;54642;59.126;37.876;2022-09-09T03:06:14;21.23;;;5.40;;
67841;SDS011;54642;59.126;37.876;2022-09-09T03:08:40;19.33;;;5.07;;
67841;SDS011;54642;59.126;37.876;2022-09-09T03:11:08;21.77;;;4.85;;
67841;SDS011;54642;59.126;37.876;2022-09-09T03:13:36;14.77;;;4.43;;
67841;SDS011;54642;59.126;37.876;2022-09-09T03:16:03;29.65;;;5.07;;
67841;SDS011;54642;59.126;37.876;2022-09-09T03:18:35;18.13;;;5.97;;
67841;SDS011;54642;59.126;37.876;2022-09-09T03:21:01;18.08;;;7.05;;
67841;SDS011;54642;59.126;37.876;2022-09-09T03:23:28;15.35;;;4.53;;
67841;SDS011;54642;59.126;37.876;2022-09-09T03:25:56;22.85;;;4.57;;
67841;SDS011;54642;59.126;37.876;2022-09-09T03:28:32;19.33;;;5.65;;
67841;SDS011;54642;59.126;37.876;2022-09-09T03:31:01;21.70;;;5.57;;
67841;SDS011;54642;59.126;37.876;2022-09-09T03:33:32;17.88;;;5.00;;
67841;SDS011;54642;59.126;37.876;2022-09-09T03:36:00;18.02;;;4.90;;
67841;SDS011;54642;59.126;37.876;2022-09-09T03:38:26;18.42;;;6.07;;
67841;SDS011;54642;59.126;37.876;2022-09-09T03:40:52;19.50;;;6.50;;
67841;SDS011;54642;59.126;37.876;2022-09-09T03:43:21;19.65;;;6.15;;
67841;SDS011;54642;59.126;37.876;2022-09-09T03:45:48;24.92;;;6.20;;
67841;SDS011;54642;59.126;37.876;2022-09-09T03:48:14;18.05;;;5.88;;
67841;SDS011;54642;59.126;37.876;2022-09-09T03:50:48;17.02;;;4.68;;
67841;SDS011;54642;59.126;37.876;2022-09-09T03:53:16;18.92;;;5.78;;
67841;SDS011;54642;59.126;37.876;2022-09-09T03:55:45;20.38;;;6.85;;
67841;SDS011;54642;59.126;37.876;2022-09-09T03:58:13;33.58;;;7.90;;
67841;SDS011;54642;59.126;37.876;2022-09-09T04:00:40;29.23;;;8.25;;
67841;SDS011;54642;59.126;37.876;2022-09-09T04:03:09;44.53;;;11.27;;
67841;SDS011;54642;59.126;37.876;2022-09-09T04:05:35;25.88;;;10.35;;
67841;SDS011;54642;59.126;37.876;2022-09-09T04:08:05;53.33;;;19.85;;
67841;SDS011;54642;59.126;37.876;2022-09-09T04:10:32;59.17;;;18.80;;
67841;SDS011;54642;59.126;37.876;2022-09-09T04:13:04;63.63;;;19.00;;
67841;SDS011;54642;59.126;37.876;2022-09-09T04:15:30;37.53;;;11.98;;
67841;SDS011;54642;59.126;37.876;2022-09-09T04:17:57;45.80;;;10.45;;
67841;SDS011;54642;59.126;37.876;2022-09-09T04:20:22;30.20;;;9.65;;
67841;SDS011;54642;59.126;37.876;2022-09-09T04:22:49;39.63;;;10.02;;
67841;SDS011;54642;59.126;37.876;2022-09-09T04:25:15;47.83;;;7.70;;
67841;SDS011;54642;59.126;37.876;2022-09-09T04:27:41;26.48;;;8.00;;
67841;SDS011;54642;59.126;37.876;2022-09-09T04:30:08;17.52;;;5.80;;
67841;SDS011;54642;59.126;37.876;2022-09-09T04:32:35;23.67;;;8.95;;
67841;SDS011;54642;59.126;37.876;2022-09-09T04:35:02;29.10;;;8.27;;
67841;SDS011;54642;59.126;37.876;2022-09-09T04:37:29;22.92;;;8.02;;
67841;SDS011;54642;59.126;37.876;2022-09-09T04:39:55;35.22;;;9.32;;
67841;SDS011;54642;59.126;37.876;2022-09-09T04:42:21;28.70;;;11.40;;
67841;SDS011;54642;59.126;37.876;2022-09-09T04:44:47;28.50;;;7.80;;
67841;SDS011;54642;59.126;37.876;2022-09-09T04:47:14;38.33;;;9.88;;
67841;SDS011;54642;59.126;37.876;2022-09-09T04:49:41;27.95;;;10.63;;
67841;SDS011;54642;59.126;37.876;2022-09-09T04:52:07;51.05;;;18.88;;
67841;SDS011;54642;59.126;37.876;2022-09-09T04:54:34;33.05;;;12.38;;
67841;SDS011;54642;59.126;37.876;2022-09-09T04:57:00;40.80;;;16.33;;
67841;SDS011;54642;59.126;37.876;2022-09-09T04:59:26;136.35;;;47.05;;
67841;SDS011;54642;59.126;37.876;2022-09-09T05:01:55;135.68;;;49.53;;
67841;SDS011;54642;59.126;37.876;2022-09-09T05:04:21;156.52;;;54.95;;
67841;SDS011;54642;59.126;37.876;2022-09-09T05:06:47;151.75;;;49.88;;
67841;SDS011;54642;59.126;37.876;2022-09-09T05:09:13;165.60;;;56.10;;
67841;SDS011;54642;59.126;37.876;2022-09-09T05:11:39;163.57;;;51.05;;
67841;SDS011;54642;59.126;37.876;2022-09-09T05:14:10;150.93;;;52.63;;
67841;SDS011;54642;59.126;37.876;2022-09-09T05:16:37;132.60;;;46.17;;
67841;SDS011;54642;59.126;37.876;2022-09-09T05:19:03;136.80;;;45.20;;
67841;SDS011;54642;59.126;37.876;2022-09-09T05:21:40;138.35;;;47.28;;
67841;SDS011;54642;59.126;37.876;2022-09-09T05:24:11;131.50;;;45.65;;
67841;SDS011;54642;59.126;37.876;2022-09-09T05:26:38;133.02;;;47.08;;
67841;SDS011;54642;59.126;37.876;2022-09-09T05:29:03;135.32;;;48.20;;
67841;SDS011;54642;59.126;37.876;2022-09-09T05:31:30;137.88;;;47.78;;
67841;SDS011;54642;59.126;37.876;2022-09-09T05:33:58;140.18;;;49.33;;
67841;SDS011;54642;59.126;37.876;2022-09-09T05:36:24;114.75;;;39.40;;
67841;SDS011;54642;59.126;37.876;2022-09-09T05:38:54;131.23;;;41.45;;
67841;SDS011;54642;59.126;37.876;2022-09-09T05:41:20;140.20;;;48.28;;
67841;SDS011;54642;59.126;37.876;2022-09-09T05:43:48;172.48;;;56.80;;
67841;SDS011;54642;59.126;37.876;2022-09-09T05:46:19;217.20;;;71.47;;
67841;SDS011;54642;59.126;37.876;2022-09-09T05:48:49;183.77;;;60.28;;
67841;SDS011;54642;59.126;37.876;2022-09-09T05:51:18;41.55;;;16.88;;
67841;SDS011;54642;59.126;37.876;2022-09-09T05:53:47;49.15;;;15.38;;
67841;SDS011;54642;59.126;37.876;2022-09-09T05:56:15;18.02;;;8.70;;
67841;SDS011;54642;59.126;37.876;2022-09-09T05:58:43;29.45;;;10.13;;
67841;SDS011;54642;59.126;37.876;2022-09-09T06:01:12;30.60;;;11.57;;
67841;SDS011;54642;59.126;37.876;2022-09-09T06:03:41;25.52;;;10.23;;
67841;SDS011;54642;59.126;37.876;2022-09-09T06:06:10;35.22;;;11.48;;
67841;SDS011;54642;59.126;37.876;2022-09-09T06:08:38;116.47;;;42.03;;
67841;SDS011;54642;59.126;37.876;2022-09-09T06:11:08;111.15;;;36.38;;
67841;SDS011;54642;59.126;37.876;2022-09-09T06:13:36;65.20;;;23.92;;
67841;SDS011;54642;59.126;37.876;2022-09-09T06:16:05;66.50;;;21.42;;
67841;SDS011;54642;59.126;37.876;2022-09-09T06:18:33;40.88;;;14.70;;
67841;SDS011;54642;59.126;37.876;2022-09-09T06:21:03;31.83;;;13.68;;
67841;SDS011;54642;59.126;37.876;2022-09-09T06:23:32;34.92;;;9.43;;
67841;SDS011;54642;59.126;37.876;2022-09-09T06:26:01;24.75;;;7.57;;
67841;SDS011;54642;59.126;37.876;2022-09-09T06:28:34;19.92;;;7.38;;
67841;SDS011;54642;59.126;37.876;2022-09-09T06:31:01;29.92;;;8.70;;
67841;SDS011;54642;59.126;37.876;2022-09-09T06:33:36;24.98;;;9.65;;
67841;SDS011;54642;59.126;37.876;2022-09-09T06:36:07;18.27;;;5.85;;
67841;SDS011;54642;59.126;37.876;2022-09-09T06:38:39;15.65;;;5.22;;
67841;SDS011;54642;59.126;37.876;2022-09-09T06:41:05;15.23;;;5.45;;
67841;SDS011;54642;59.126;37.876;2022-09-09T06:43:32;9.88;;;5.20;;
67841;SDS011;54642;59.126;37.876;2022-09-09T06:46:00;13.18;;;6.43;;
67841;SDS011;54642;59.126;37.876;2022-09-09T06:48:32;16.15;;;6.47;;
67841;SDS011;54642;59.126;37.876;2022-09-09T06:53:41;10.63;;;3.85;;
67841;SDS011;54642;59.126;37.876;2022-09-09T06:59:10;6.78;;;3.35;;
67841;SDS011;54642;59.126;37.876;2022-09-09T07:01:38;5.68;;;2.15;;
67841;SDS011;54642;59.126;37.876;2022-09-09T07:04:15;4.25;;;2.70;;
67841;SDS011;54642;59.126;37.876;2022-09-09T07:06:43;7.13;;;3.90;;
67841;SDS011;54642;59.126;37.876;2022-09-09T07:09:15;6.18;;;3.47;;
67841;SDS011;54642;59.126;37.876;2022-09-09T07:11:46;8.48;;;2.33;;
67841;SDS011;54642;59.126;37.876;2022-09-09T07:14:14;14.82;;;5.68;;
67841;SDS011;54642;59.126;37.876;2022-09-09T07:16:44;7.03;;;3.45;;
67841;SDS011;54642;59.126;37.876;2022-09-09T07:19:13;5.18;;;1.98;;
67841;SDS011;54642;59.126;37.876;2022-09-09T07:21:40;13.73;;;5.65;;
67841;SDS011;54642;59.126;37.876;2022-09-09T07:24:08;13.15;;;5.05;;
67841;SDS011;54642;59.126;37.876;2022-09-09T07:26:38;22.67;;;7.47;;
67841;SDS011;54642;59.126;37.876;2022-09-09T07:29:04;14.35;;;4.85;;
67841;SDS011;54642;59.126;37.876;2022-09-09T07:31:31;18.60;;;5.88;;
67841;SDS011;54642;59.126;37.876;2022-09-09T07:34:00;9.43;;;4.00;;
67841;SDS011;54642;59.126;37.876;2022-09-09T07:36:27;12.20;;;5.47;;
67841;SDS011;54642;59.126;37.876;2022-09-09T07:38:56;10.30;;;3.95;;
67841;SDS011;54642;59.126;37.876;2022-09-09T07:43:55;9.80;;;5.22;;
67841;SDS011;54642;59.126;37.876;2022-09-09T07:46:23;8.27;;;4.20;;
67841;SDS011;54642;59.126;37.876;2022-09-09T07:48:51;3.72;;;2.28;;
67841;SDS011;54642;59.126;37.876;2022-09-09T07:51:25;4.10;;;2.28;;
67841;SDS011;54642;59.126;37.876;2022-09-09T07:53:54;6.68;;;4.40;;
67841;SDS011;54642;59.126;37.876;2022-09-09T07:56:25;12.23;;;5.40;;
67841;SDS011;54642;59.126;37.876;2022-09-09T07:58:53;8.82;;;3.97;;
67841;SDS011;54642;59.126;37.876;2022-09-09T08:01:40;8.20;;;4.22;;
67841;SDS011;54642;59.126;37.876;2022-09-09T08:04:17;5.80;;;2.00;;
67841;SDS011;54642;59.126;37.876;2022-09-09T08:06:46;8.15;;;2.15;;
67841;SDS011;54642;59.126;37.876;2022-09-09T08:09:19;14.55;;;6.53;;
67841;SDS011;54642;59.126;37.876;2022-09-09T08:11:47;8.45;;;3.88;;
67841;SDS011;54642;59.126;37.876;2022-09-09T08:14:14;12.15;;;5.50;;
67841;SDS011;54642;59.126;37.876;2022-09-09T08:16:42;3.83;;;2.17;;
67841;SDS011;54642;59.126;37.876;2022-09-09T08:19:11;4.40;;;2.53;;
67841;SDS011;54642;59.126;37.876;2022-09-09T08:21:39;6.20;;;3.13;;
67841;SDS011;54642;59.126;37.876;2022-09-09T08:24:06;19.10;;;4.03;;
67841;SDS011;54642;59.126;37.876;2022-09-09T08:26:35;3.40;;;2.00;;
67841;SDS011;54642;59.126;37.876;2022-09-09T08:29:13;10.45;;;1.60;;
67841;SDS011;54642;59.126;37.876;2022-09-09T08:31:41;6.40;;;2.53;;
67841;SDS011;54642;59.126;37.876;2022-09-09T08:34:10;5.80;;;2.00;;
67841;SDS011;54642;59.126;37.876;2022-09-09T08:36:41;3.90;;;1.75;;
67841;SDS011;54642;59.126;37.876;2022-09-09T08:39:10;9.48;;;4.30;;
67841;SDS011;54642;59.126;37.876;2022-09-09T08:44:13;4.88;;;2.10;;
67841;SDS011;54642;59.126;37.876;2022-09-09T08:49:57;12.30;;;3.60;;
67841;SDS011;54642;59.126;37.876;2022-09-09T08:52:31;9.90;;;3.83;;
67841;SDS011;54642;59.126;37.876;2022-09-09T08:58:17;8.38;;;3.13;;
67841;SDS011;54642;59.126;37.876;2022-09-09T09:00:52;5.00;;;1.95;;
67841;SDS011;54642;59.126;37.876;2022-09-09T09:03:45;8.10;;;3.45;;
67841;SDS011;54642;59.126;37.876;2022-09-09T09:11:34;13.80;;;4.28;;
67841;SDS011;54642;59.126;37.876;2022-09-09T09:14:03;12.55;;;2.65;;
67841;SDS011;54642;59.126;37.876;2022-09-09T09:16:58;12.32;;;4.00;;
67841;SDS011;54642;59.126;37.876;2022-09-09T09:19:28;9.40;;;2.83;;
67841;SDS011;54642;59.126;37.876;2022-09-09T09:30:57;6.45;;;3.05;;
67841;SDS011;54642;59.126;37.876;2022-09-09T09:36:09;8.32;;;3.10;;
67841;SDS011;54642;59.126;37.876;2022-09-09T09:38:38;8.20;;;3.45;;
67841;SDS011;54642;59.126;37.876;2022-09-09T09:41:05;4.00;;;1.20;;
67841;SDS011;54642;59.126;37.876;2022-09-09T09:43:35;23.33;;;7.97;;
67841;SDS011;54642;59.126;37.876;2022-09-09T09:46:17;23.30;;;5.63;;
67841;SDS011;54642;59.126;37.876;2022-09-09T09:48:56;13.57;;;5.75;;
67841;SDS011;54642;59.126;37.876;2022-09-09T09:51:26;16.52;;;8.00;;
67841;SDS011;54642;59.126;37.876;2022-09-09T09:53:54;15.90;;;5.80;;
67841;SDS011;54642;59.126;37.876;2022-09-09T09:56:52;5.43;;;2.03;;
67841;SDS011;54642;59.126;37.876;2022-09-09T09:59:23;5.90;;;2.10;;
67841;SDS011;54642;59.126;37.876;2022-09-09T10:04:38;10.43;;;4.47;;
67841;SDS011;54642;59.126;37.876;2022-09-09T10:07:11;11.82;;;4.47;;
67841;SDS011;54642;59.126;37.876;2022-09-09T10:09:49;11.07;;;3.58;;
67841;SDS011;54642;59.126;37.876;2022-09-09T10:18:00;6.38;;;3.08;;
67841;SDS011;54642;59.126;37.876;2022-09-09T10:23:27;10.25;;;4.18;;
67841;SDS011;54642;59.126;37.876;2022-09-09T10:26:14;5.65;;;2.60;;
67841;SDS011;54642;59.126;37.876;2022-09-09T10:51:22;3.33;;;1.92;;
67841;SDS011;54642;59.126;37.876;2022-09-09T10:56:36;5.63;;;1.50;;
67841;SDS011;54642;59.126;37.876;2022-09-09T11:04:31;3.63;;;1.95;;
67841;SDS011;54642;59.126;37.876;2022-09-09T11:07:05;5.70;;;2.92;;
67841;SDS011;54642;59.126;37.876;2022-09-09T11:09:53;8.02;;;2.65;;
67841;SDS011;54642;59.126;37.876;2022-09-09T11:12:26;7.35;;;3.55;;
67841;SDS011;54642;59.126;37.876;2022-09-09T11:14:55;7.25;;;3.20;;
67841;SDS011;54642;59.126;37.876;2022-09-09T11:17:50;8.45;;;3.58;;
67841;SDS011;54642;59.126;37.876;2022-09-09T11:20:21;6.97;;;2.20;;
67841;SDS011;54642;59.126;37.876;2022-09-09T11:22:59;7.00;;;2.38;;
67841;SDS011;54642;59.126;37.876;2022-09-09T11:25:32;3.65;;;1.95;;
67841;SDS011;54642;59.126;37.876;2022-09-09T11:31:00;3.40;;;1.33;;
67841;SDS011;54642;59.126;37.876;2022-09-09T11:44:38;5.95;;;2.75;;
67841;SDS011;54642;59.126;37.876;2022-09-09T11:47:15;5.18;;;2.55;;
67841;SDS011;54642;59.126;37.876;2022-09-09T11:49:51;3.63;;;1.95;;
67841;SDS011;54642;59.126;37.876;2022-09-09T11:54:50;10.13;;;4.50;;
67841;SDS011;54642;59.126;37.876;2022-09-09T11:57:25;27.85;;;15.93;;
67841;SDS011;54642;59.126;37.876;2022-09-09T11:59:58;12.05;;;5.15;;
67841;SDS011;54642;59.126;37.876;2022-09-09T12:02:26;12.57;;;4.00;;
67841;SDS011;54642;59.126;37.876;2022-09-09T12:10:26;22.05;;;3.60;;
67841;SDS011;54642;59.126;37.876;2022-09-09T12:12:54;7.85;;;2.70;;
67841;SDS011;54642;59.126;37.876;2022-09-09T12:15:25;11.52;;;4.38;;
67841;SDS011;54642;59.126;37.876;2022-09-09T12:17:55;10.93;;;6.13;;
67841;SDS011;54642;59.126;37.876;2022-09-09T12:31:20;14.88;;;5.13;;
67841;SDS011;54642;59.126;37.876;2022-09-09T12:34:14;37.50;;;11.10;;
67841;SDS011;54642;59.126;37.876;2022-09-09T12:36:52;8.60;;;4.63;;
67841;SDS011;54642;59.126;37.876;2022-09-09T12:39:33;22.13;;;2.95;;
67841;SDS011;54642;59.126;37.876;2022-09-09T12:42:03;18.80;;;2.67;;
67841;SDS011;54642;59.126;37.876;2022-09-09T12:44:29;8.40;;;2.65;;
67841;SDS011;54642;59.126;37.876;2022-09-09T12:46:58;12.27;;;3.20;;
67841;SDS011;54642;59.126;37.876;2022-09-09T12:49:35;8.50;;;3.42;;
67841;SDS011;54642;59.126;37.876;2022-09-09T12:52:05;12.68;;;3.00;;
67841;SDS011;54642;59.126;37.876;2022-09-09T12:54:43;11.10;;;4.85;;
67841;SDS011;54642;59.126;37.876;2022-09-09T12:57:12;8.20;;;4.65;;
67841;SDS011;54642;59.126;37.876;2022-09-09T12:59:40;8.13;;;4.47;;
67841;SDS011;54642;59.126;37.876;2022-09-09T13:02:14;14.35;;;3.10;;
67841;SDS011;54642;59.126;37.876;2022-09-09T13:04:44;16.67;;;2.35;;
67841;SDS011;54642;59.126;37.876;2022-09-09T13:07:13;5.97;;;2.63;;
67841;SDS011;54642;59.126;37.876;2022-09-09T13:09:41;19.73;;;3.83;;
67841;SDS011;54642;59.126;37.876;2022-09-09T13:12:16;18.30;;;3.83;;
67841;SDS011;54642;59.126;37.876;2022-09-09T13:14:48;16.42;;;5.15;;
67841;SDS011;54642;59.126;37.876;2022-09-09T13:17:21;12.48;;;4.85;;
67841;SDS011;54642;59.126;37.876;2022-09-09T13:19:52;13.73;;;4.55;;
67841;SDS011;54642;59.126;37.876;2022-09-09T13:22:20;18.88;;;6.88;;
67841;SDS011;54642;59.126;37.876;2022-09-09T13:24:46;8.95;;;3.97;;
67841;SDS011;54642;59.126;37.876;2022-09-09T13:27:29;7.45;;;4.05;;
67841;SDS011;54642;59.126;37.876;2022-09-09T13:29:57;10.18;;;4.32;;
67841;SDS011;54642;59.126;37.876;2022-09-09T13:32:24;8.32;;;2.97;;
67841;SDS011;54642;59.126;37.876;2022-09-09T13:34:55;10.43;;;3.03;;
67841;SDS011;54642;59.126;37.876;2022-09-09T13:37:31;9.93;;;4.93;;
67841;SDS011;54642;59.126;37.876;2022-09-09T13:39:59;10.35;;;5.78;;
67841;SDS011;54642;59.126;37.876;2022-09-09T13:42:29;8.40;;;3.38;;
67841;SDS011;54642;59.126;37.876;2022-09-09T13:45:03;20.15;;;6.47;;
67841;SDS011;54642;59.126;37.876;2022-09-09T13:52:52;28.80;;;12.40;;
67841;SDS011;54642;59.126;37.876;2022-09-09T13:55:20;14.32;;;7.28;;
67841;SDS011;54642;59.126;37.876;2022-09-09T14:00:21;12.95;;;5.80;;
67841;SDS011;54642;59.126;37.876;2022-09-09T14:02:48;6.05;;;1.67;;
67841;SDS011;54642;59.126;37.876;2022-09-09T14:05:17;9.30;;;2.45;;
67841;SDS011;54642;59.126;37.876;2022-09-09T14:07:47;8.32;;;3.00;;
67841;SDS011;54642;59.126;37.876;2022-09-09T14:10:13;13.93;;;6.68;;
67841;SDS011;54642;59.126;37.876;2022-09-09T14:12:39;4.25;;;1.60;;
67841;SDS011;54642;59.126;37.876;2022-09-09T14:15:06;9.23;;;2.88;;
67841;SDS011;54642;59.126;37.876;2022-09-09T14:17:35;5.65;;;1.80;;
67841;SDS011;54642;59.126;37.876;2022-09-09T14:20:05;1.77;;;1.10;;
67841;SDS011;54642;59.126;37.876;2022-09-09T14:22:33;4.55;;;1.23;;
67841;SDS011;54642;59.126;37.876;2022-09-09T14:24:59;2.88;;;1.50;;
67841;SDS011;54642;59.126;37.876;2022-09-09T14:27:25;9.00;;;2.20;;
67841;SDS011;54642;59.126;37.876;2022-09-09T14:29:55;4.03;;;2.50;;
67841;SDS011;54642;59.126;37.876;2022-09-09T14:32:21;7.20;;;2.03;;
67841;SDS011;54642;59.126;37.876;2022-09-09T14:34:47;14.45;;;2.33;;
67841;SDS011;54642;59.126;37.876;2022-09-09T14:37:15;7.97;;;2.30;;
67841;SDS011;54642;59.126;37.876;2022-09-09T14:39:42;8.90;;;3.25;;
67841;SDS011;54642;59.126;37.876;2022-09-09T14:42:12;4.95;;;1.15;;
67841;SDS011;54642;59.126;37.876;2022-09-09T14:44:39;10.60;;;2.47;;
67841;SDS011;54642;59.126;37.876;2022-09-09T14:47:06;5.75;;;2.17;;
67841;SDS011;54642;59.126;37.876;2022-09-09T14:49:33;5.68;;;1.33;;
67841;SDS011;54642;59.126;37.876;2022-09-09T14:51:59;3.75;;;1.05;;
67841;SDS011;54642;59.126;37.876;2022-09-09T14:54:26;7.22;;;2.90;;
67841;SDS011;54642;59.126;37.876;2022-09-09T14:56:53;6.28;;;2.47;;
67841;SDS011;54642;59.126;37.876;2022-09-09T14:59:19;7.18;;;3.00;;
67841;SDS011;54642;59.126;37.876;2022-09-09T15:01:45;15.10;;;7.18;;
67841;SDS011;54642;59.126;37.876;2022-09-09T15:04:11;9.27;;;2.42;;
67841;SDS011;54642;59.126;37.876;2022-09-09T15:06:39;8.90;;;1.92;;
67841;SDS011;54642;59.126;37.876;2022-09-09T15:09:06;6.03;;;3.47;;
67841;SDS011;54642;59.126;37.876;2022-09-09T15:11:33;9.93;;;3.60;;
67841;SDS011;54642;59.126;37.876;2022-09-09T15:14:03;9.13;;;2.63;;
67841;SDS011;54642;59.126;37.876;2022-09-09T15:16:30;2.97;;;1.02;;
67841;SDS011;54642;59.126;37.876;2022-09-09T15:19:00;3.33;;;1.63;;
67841;SDS011;54642;59.126;37.876;2022-09-09T15:21:31;11.98;;;1.30;;
67841;SDS011;54642;59.126;37.876;2022-09-09T15:23:58;3.85;;;1.50;;
67841;SDS011;54642;59.126;37.876;2022-09-09T15:26:25;9.38;;;2.30;;
67841;SDS011;54642;59.126;37.876;2022-09-09T15:28:52;9.52;;;4.55;;
67841;SDS011;54642;59.126;37.876;2022-09-09T15:31:20;5.65;;;2.53;;
67841;SDS011;54642;59.126;37.876;2022-09-09T15:33:54;12.23;;;5.28;;
67841;SDS011;54642;59.126;37.876;2022-09-09T15:36:32;5.90;;;2.65;;
67841;SDS011;54642;59.126;37.876;2022-09-09T15:41:27;10.23;;;2.67;;
67841;SDS011;54642;59.126;37.876;2022-09-09T15:43:54;5.05;;;3.25;;
67841;SDS011;54642;59.126;37.876;2022-09-09T15:49:04;9.07;;;4.40;;
67841;SDS011;54642;59.126;37.876;2022-09-09T15:51:36;10.13;;;3.40;;
67841;SDS011;54642;59.126;37.876;2022-09-09T15:54:03;3.63;;;2.00;;
67841;SDS011;54642;59.126;37.876;2022-09-09T15:56:30;1.88;;;1.60;;
67841;SDS011;54642;59.126;37.876;2022-09-09T15:58:58;2.20;;;0.90;;
67841;SDS011;54642;59.126;37.876;2022-09-09T16:01:25;4.88;;;1.92;;
67841;SDS011;54642;59.126;37.876;2022-09-09T16:03:52;6.50;;;2.55;;
67841;SDS011;54642;59.126;37.876;2022-09-09T16:06:19;8.07;;;2.35;;
67841;SDS011;54642;59.126;37.876;2022-09-09T16:08:47;6.00;;;2.88;;
67841;SDS011;54642;59.126;37.876;2022-09-09T16:11:22;3.63;;;2.10;;
67841;SDS011;54642;59.126;37.876;2022-09-09T16:13:50;11.77;;;3.17;;
67841;SDS011;54642;59.126;37.876;2022-09-09T16:16:18;12.98;;;4.13;;
67841;SDS011;54642;59.126;37.876;2022-09-09T16:18:48;6.78;;;2.70;;
67841;SDS011;54642;59.126;37.876;2022-09-09T16:21:18;4.60;;;2.55;;
67841;SDS011;54642;59.126;37.876;2022-09-09T16:23:46;6.18;;;2.08;;
67841;SDS011;54642;59.126;37.876;2022-09-09T16:26:15;8.02;;;1.92;;
67841;SDS011;54642;59.126;37.876;2022-09-09T16:28:42;7.50;;;2.42;;
67841;SDS011;54642;59.126;37.876;2022-09-09T16:31:09;6.68;;;2.05;;
67841;SDS011;54642;59.126;37.876;2022-09-09T16:33:39;5.10;;;2.65;;
67841;SDS011;54642;59.126;37.876;2022-09-09T16:36:10;5.78;;;3.17;;
67841;SDS011;54642;59.126;37.876;2022-09-09T16:38:38;4.88;;;3.05;;
67841;SDS011;54642;59.126;37.876;2022-09-09T16:41:04;7.18;;;2.17;;
67841;SDS011;54642;59.126;37.876;2022-09-09T16:43:32;6.10;;;2.15;;
67841;SDS011;54642;59.126;37.876;2022-09-09T16:45:58;9.18;;;2.10;;
67841;SDS011;54642;59.126;37.876;2022-09-09T16:48:31;36.33;;;19.35;;
67841;SDS011;54642;59.126;37.876;2022-09-09T16:51:04;68.18;;;32.10;;
67841;SDS011;54642;59.126;37.876;2022-09-09T16:56:01;61.60;;;29.45;;
67841;SDS011;54642;59.126;37.876;2022-09-09T16:58:31;15.40;;;8.85;;
67841;SDS011;54642;59.126;37.876;2022-09-09T17:00:58;33.05;;;15.00;;
67841;SDS011;54642;59.126;37.876;2022-09-09T17:03:24;16.08;;;7.85;;
67841;SDS011;54642;59.126;37.876;2022-09-09T17:05:50;18.50;;;6.80;;
67841;SDS011;54642;59.126;37.876;2022-09-09T17:08:16;7.45;;;2.70;;
67841;SDS011;54642;59.126;37.876;2022-09-09T17:10:42;8.88;;;3.45;;
67841;SDS011;54642;59.126;37.876;2022-09-09T17:13:08;7.85;;;3.17;;
67841;SDS011;54642;59.126;37.876;2022-09-09T17:15:38;15.68;;;3.60;;
67841;SDS011;54642;59.126;37.876;2022-09-09T17:18:06;8.90;;;3.63;;
67841;SDS011;54642;59.126;37.876;2022-09-09T17:20:34;9.35;;;3.63;;
67841;SDS011;54642;59.126;37.876;2022-09-09T17:23:03;13.43;;;5.55;;
67841;SDS011;54642;59.126;37.876;2022-09-09T17:25:29;15.48;;;5.47;;
67841;SDS011;54642;59.126;37.876;2022-09-09T17:27:54;62.22;;;28.58;;
67841;SDS011;54642;59.126;37.876;2022-09-09T17:30:20;52.88;;;20.73;;
67841;SDS011;54642;59.126;37.876;2022-09-09T17:32:46;20.92;;;5.32;;
67841;SDS011;54642;59.126;37.876;2022-09-09T17:35:12;32.60;;;16.10;;
67841;SDS011;54642;59.126;37.876;2022-09-09T17:37:38;60.58;;;27.33;;
67841;SDS011;54642;59.126;37.876;2022-09-09T17:40:04;23.92;;;12.15;;